createdAt,value
2019-01-23T00:02:15.983Z,17.87
2019-01-23T00:04:41.840Z,16.93
2019-01-23T00:07:10.438Z,17.63
2019-01-23T00:09:36.251Z,17.40
2019-01-23T00:12:02.211Z,16.23
2019-01-23T00:14:28.151Z,15.05
2019-01-23T00:16:54.287Z,18.70
2019-01-23T00:19:20.220Z,17.92
2019-01-23T00:21:46.047Z,16.47
2019-01-23T00:24:14.670Z,17.33
2019-01-23T00:26:40.504Z,18.00
2019-01-23T00:29:11.557Z,16.47
2019-01-23T00:31:37.372Z,17.70
2019-01-23T00:34:05.972Z,17.20
2019-01-23T00:36:31.806Z,17.00
2019-01-23T00:38:59.020Z,18.40
2019-01-23T00:41:25.127Z,17.42
2019-01-23T00:43:55.615Z,17.23
2019-01-23T00:46:21.482Z,16.15
2019-01-23T00:48:47.331Z,16.30
2019-01-23T00:51:13.134Z,17.20
2019-01-23T00:53:39.243Z,17.30
2019-01-23T00:56:05.209Z,17.73
2019-01-23T00:58:31.334Z,14.38
2019-01-23T01:00:59.958Z,14.45
2019-01-23T01:03:25.756Z,16.73
2019-01-23T01:05:54.893Z,17.10
2019-01-23T01:08:21.016Z,17.40
2019-01-23T01:10:49.746Z,14.65
2019-01-23T01:13:15.877Z,14.47
2019-01-23T01:15:44.966Z,13.18
2019-01-23T01:18:10.816Z,17.05
2019-01-23T01:20:39.762Z,16.80
2019-01-23T01:23:05.984Z,15.55
2019-01-23T01:25:31.813Z,16.05
2019-01-23T01:27:57.885Z,17.80
2019-01-23T01:30:23.833Z,16.40
2019-01-23T01:32:52.522Z,18.30
2019-01-23T01:35:18.370Z,15.23
2019-01-23T01:37:47.405Z,17.43
2019-01-23T01:40:16.042Z,18.73
2019-01-23T01:42:42.148Z,16.62
2019-01-23T01:45:09.647Z,18.07
2019-01-23T01:47:35.842Z,17.50
2019-01-23T01:50:03.158Z,16.45
2019-01-23T01:52:31.812Z,15.75
2019-01-23T01:54:57.622Z,14.13
2019-01-23T01:57:26.254Z,14.80
2019-01-23T01:59:52.081Z,16.45
2019-01-23T02:02:17.916Z,13.63
2019-01-23T02:04:43.721Z,15.00
2019-01-23T02:07:09.566Z,15.83
2019-01-23T02:09:38.554Z,18.30
2019-01-23T02:12:04.608Z,16.90
2019-01-23T02:14:33.696Z,15.70
2019-01-23T02:16:59.542Z,19.95
2019-01-23T02:19:25.388Z,17.53
2019-01-23T02:21:51.221Z,15.37
2019-01-23T02:24:19.897Z,17.50
2019-01-23T02:26:45.746Z,17.42
2019-01-23T02:29:16.737Z,11.97
2019-01-23T02:31:42.604Z,16.25
2019-01-23T02:34:09.884Z,18.20
2019-01-23T02:36:35.708Z,18.65
2019-01-23T02:39:01.806Z,19.13
2019-01-23T02:41:27.663Z,17.25
2019-01-23T02:43:53.491Z,18.13
2019-01-23T02:46:23.063Z,16.67
2019-01-23T02:48:49.208Z,20.40
2019-01-23T02:51:18.196Z,18.62
2019-01-23T02:53:44.053Z,16.15
2019-01-23T02:56:13.100Z,18.33
2019-01-23T02:58:39.226Z,18.70
2019-01-23T03:01:08.430Z,18.87
2019-01-23T03:03:34.521Z,20.35
2019-01-23T03:06:00.745Z,18.52
2019-01-23T03:08:26.560Z,19.23
2019-01-23T03:10:55.736Z,18.33
2019-01-23T03:13:21.534Z,19.60
2019-01-23T03:15:47.359Z,17.93
2019-01-23T03:18:13.499Z,20.37
2019-01-23T03:20:39.357Z,18.35
2019-01-23T03:23:07.999Z,19.10
2019-01-23T03:25:33.923Z,18.17
2019-01-23T03:28:02.774Z,17.60
2019-01-23T03:30:28.611Z,16.90
2019-01-23T03:32:57.627Z,19.03
2019-01-23T03:35:23.491Z,16.95
2019-01-23T03:37:53.004Z,17.50
2019-01-23T03:40:19.838Z,16.02
2019-01-23T03:42:45.731Z,17.85
2019-01-23T03:45:13.068Z,16.63
2019-01-23T03:47:40.201Z,17.07
2019-01-23T03:50:09.946Z,18.00
2019-01-23T03:52:35.745Z,15.40
2019-01-23T03:55:02.338Z,19.83
2019-01-23T03:57:28.178Z,15.63
2019-01-23T03:59:54.064Z,13.33
2019-01-23T04:02:19.902Z,16.40
2019-01-23T04:04:48.776Z,19.27
2019-01-23T04:07:14.619Z,18.15
2019-01-23T04:09:43.222Z,17.00
2019-01-23T04:12:09.064Z,15.72
2019-01-23T04:14:36.008Z,16.93
2019-01-23T04:17:02.135Z,15.30
2019-01-23T04:19:30.958Z,16.42
2019-01-23T04:21:56.769Z,19.05
2019-01-23T04:24:25.404Z,21.00
2019-01-23T04:26:51.260Z,18.32
2019-01-23T04:29:17.090Z,21.20
2019-01-23T04:31:43.182Z,15.67
2019-01-23T04:34:09.319Z,18.57
2019-01-23T04:36:38.232Z,18.82
2019-01-23T04:39:05.803Z,21.12
2019-01-23T04:41:34.923Z,19.27
2019-01-23T04:44:00.790Z,19.60
2019-01-23T04:46:26.900Z,14.03
2019-01-23T04:48:52.996Z,18.42
2019-01-23T04:51:32.637Z,19.42
2019-01-23T04:53:58.477Z,19.98
2019-01-23T04:56:24.280Z,20.00
2019-01-23T04:58:50.394Z,19.13
2019-01-23T05:01:16.796Z,17.75
2019-01-23T05:03:42.875Z,19.65
2019-01-23T05:06:08.737Z,19.12
2019-01-23T05:08:34.578Z,17.37
2019-01-23T05:11:00.418Z,20.10
2019-01-23T05:13:26.273Z,19.83
2019-01-23T05:15:52.108Z,17.47
2019-01-23T05:18:17.966Z,17.77
2019-01-23T05:20:43.796Z,19.47
2019-01-23T05:23:12.671Z,18.87
2019-01-23T05:25:38.542Z,19.17
2019-01-23T05:28:07.374Z,19.23
2019-01-23T05:30:33.581Z,19.15
2019-01-23T05:33:02.952Z,17.23
2019-01-23T05:35:28.766Z,19.80
2019-01-23T05:37:57.480Z,21.30
2019-01-23T05:40:23.313Z,19.25
2019-01-23T05:42:49.146Z,17.43
2019-01-23T05:45:15.056Z,19.80
2019-01-23T05:47:41.305Z,19.90
2019-01-23T05:50:17.713Z,21.57
2019-01-23T05:52:43.813Z,20.70
2019-01-23T05:55:11.330Z,19.10
2019-01-23T05:57:37.466Z,17.40
2019-01-23T06:00:14.312Z,20.27
2019-01-23T06:02:40.454Z,20.72
2019-01-23T06:05:08.076Z,20.75
2019-01-23T06:07:33.914Z,19.73
2019-01-23T06:10:00.325Z,18.10
2019-01-23T06:12:26.215Z,19.17
2019-01-23T06:14:52.071Z,18.07
2019-01-23T06:17:18.242Z,18.60
2019-01-23T06:19:44.150Z,19.95
2019-01-23T06:22:09.965Z,18.30
2019-01-23T06:24:35.780Z,19.80
2019-01-23T06:27:01.919Z,20.63
2019-01-23T06:29:28.012Z,21.95
2019-01-23T06:31:53.846Z,18.82
2019-01-23T06:34:19.690Z,19.93
2019-01-23T06:36:45.496Z,19.20
2019-01-23T06:39:11.308Z,18.10
2019-01-23T06:41:37.250Z,19.57
2019-01-23T06:44:03.121Z,21.90
2019-01-23T06:46:32.519Z,17.73
2019-01-23T06:48:58.645Z,18.12
2019-01-23T06:51:27.674Z,31.15
2019-01-23T06:53:53.775Z,19.70
2019-01-23T06:56:19.585Z,19.20
2019-01-23T06:58:45.424Z,21.90
2019-01-23T07:01:11.479Z,21.80
2019-01-23T07:03:38.512Z,17.92
2019-01-23T07:06:04.463Z,21.10
2019-01-23T07:08:33.776Z,18.90
2019-01-23T07:10:59.607Z,18.37
2019-01-23T07:13:28.802Z,19.30
2019-01-23T07:15:54.637Z,18.17
2019-01-23T07:18:23.556Z,19.80
2019-01-23T07:20:49.345Z,19.92
2019-01-23T07:23:18.482Z,18.20
2019-01-23T07:25:44.289Z,18.32
2019-01-23T07:28:13.105Z,21.27
2019-01-23T07:30:39.340Z,21.40
2019-01-23T07:33:05.644Z,20.35
2019-01-23T07:35:31.580Z,18.67
2019-01-23T07:37:57.780Z,19.10
2019-01-23T07:40:23.633Z,20.20
2019-01-23T07:42:49.458Z,18.57
2019-01-23T07:45:23.388Z,20.47
2019-01-23T07:47:49.271Z,17.12
2019-01-23T07:50:15.168Z,21.33
2019-01-23T07:52:41.386Z,20.17
2019-01-23T07:55:15.656Z,20.30
2019-01-23T07:57:41.475Z,18.27
2019-01-23T08:00:13.122Z,16.00
2019-01-23T08:02:39.057Z,19.70
2019-01-23T08:05:08.389Z,19.80
2019-01-23T08:07:34.189Z,18.67
2019-01-23T08:10:00.334Z,21.50
2019-01-23T08:12:26.201Z,18.50
2019-01-23T08:14:52.032Z,19.80
2019-01-23T08:17:18.233Z,21.63
2019-01-23T08:19:44.069Z,20.35
2019-01-23T08:22:09.987Z,18.27
2019-01-23T08:24:35.861Z,19.93
2019-01-23T08:27:07.056Z,22.40
2019-01-23T08:29:29.974Z,20.90
2019-01-23T08:31:55.836Z,20.20
2019-01-23T08:34:21.641Z,19.90
2019-01-23T08:36:50.883Z,19.80
2019-01-23T08:39:16.698Z,19.62
2019-01-23T08:41:42.820Z,18.70
2019-01-23T08:44:08.690Z,20.52
2019-01-23T08:46:34.521Z,18.83
2019-01-23T08:49:00.416Z,20.77
2019-01-23T08:51:26.245Z,19.97
2019-01-23T08:53:54.840Z,19.97
2019-01-23T08:56:20.748Z,19.32
2019-01-23T08:58:49.413Z,18.73
2019-01-23T09:01:15.616Z,18.90
2019-01-23T09:03:44.230Z,19.55
2019-01-23T09:06:10.329Z,18.75
2019-01-23T09:08:39.822Z,18.30
2019-01-23T09:11:05.637Z,18.02
2019-01-23T09:13:34.343Z,18.50
2019-01-23T09:16:00.166Z,17.90
2019-01-23T09:18:28.829Z,18.20
2019-01-23T09:20:54.962Z,18.27
2019-01-23T09:23:20.805Z,19.20
2019-01-23T09:25:50.128Z,18.67
2019-01-23T09:28:14.634Z,17.30
2019-01-23T09:30:43.954Z,16.00
2019-01-23T09:33:29.377Z,17.90
2019-01-23T09:36:17.473Z,17.60
2019-01-23T09:39:17.389Z,18.82
2019-01-23T09:42:06.247Z,18.17
2019-01-23T09:44:52.587Z,17.95
2019-01-23T09:47:34.260Z,18.05
2019-01-23T09:50:20.578Z,17.02
2019-01-23T09:52:56.034Z,16.45
2019-01-23T09:55:21.882Z,16.80
2019-01-23T09:57:48.755Z,19.77
2019-01-23T10:00:20.599Z,19.02
2019-01-23T10:02:46.465Z,18.48
2019-01-23T10:05:12.291Z,19.20
2019-01-23T10:07:38.126Z,18.47
2019-01-23T10:10:07.736Z,18.30
2019-01-23T10:12:33.600Z,18.23
2019-01-23T10:14:59.401Z,18.83
2019-01-23T10:17:25.254Z,18.77
2019-01-23T10:19:52.676Z,15.73
2019-01-23T10:22:18.607Z,16.82
2019-01-23T10:24:44.865Z,18.00
2019-01-23T10:27:10.942Z,13.38
2019-01-23T10:29:36.735Z,14.47
2019-01-23T10:32:03.066Z,15.67
2019-01-23T10:34:28.917Z,14.38
2019-01-23T10:36:54.998Z,18.83
2019-01-23T10:39:20.971Z,16.00
2019-01-23T10:41:46.829Z,18.00
2019-01-23T10:44:12.949Z,17.20
2019-01-23T10:46:38.795Z,14.95
2019-01-23T10:49:07.963Z,17.30
2019-01-23T10:51:34.065Z,17.07
2019-01-23T10:53:59.932Z,16.55
2019-01-23T10:56:25.838Z,16.83
2019-01-23T10:58:54.542Z,15.80
2019-01-23T11:01:20.674Z,15.75
2019-01-23T11:03:51.437Z,15.05
2019-01-23T11:06:17.248Z,15.48
2019-01-23T11:08:45.968Z,16.27
2019-01-23T11:11:11.794Z,17.87
2019-01-23T11:13:37.588Z,17.47
2019-01-23T11:16:03.667Z,16.93
2019-01-23T11:18:31.840Z,14.85
2019-01-23T11:20:58.099Z,17.02
2019-01-23T11:23:24.128Z,17.45
2019-01-23T11:25:50.405Z,17.05
2019-01-23T11:28:16.237Z,18.52
2019-01-23T11:30:45.589Z,19.87
2019-01-23T11:33:11.430Z,17.98
2019-01-23T11:35:40.046Z,19.37
2019-01-23T11:38:05.930Z,19.25
2019-01-23T11:40:34.954Z,17.57
2019-01-23T11:43:00.818Z,19.60
2019-01-23T11:45:29.822Z,18.97
2019-01-23T11:47:55.763Z,19.60
2019-01-23T11:50:23.173Z,20.53
2019-01-23T11:52:49.692Z,18.42
2019-01-23T11:55:15.600Z,19.37
2019-01-23T11:57:41.449Z,20.30
2019-01-23T12:00:13.942Z,21.87
2019-01-23T12:02:39.900Z,22.67
2019-01-23T12:05:08.939Z,23.85
2019-01-23T12:07:35.110Z,21.15
2019-01-23T12:10:01.179Z,22.10
2019-01-23T12:12:27.027Z,20.15
2019-01-23T12:14:52.846Z,19.90
2019-01-23T12:17:21.476Z,20.73
2019-01-23T12:19:47.324Z,20.30
2019-01-23T12:22:14.491Z,19.80
2019-01-23T12:24:40.335Z,19.82
2019-01-23T12:27:06.252Z,19.97
2019-01-23T12:29:32.409Z,22.00
2019-01-23T12:31:58.246Z,20.37
2019-01-23T12:34:27.130Z,20.77
2019-01-23T12:36:53.350Z,22.02
2019-01-23T12:39:22.516Z,19.70
2019-01-23T12:41:48.379Z,21.80
2019-01-23T12:44:39.056Z,20.70
2019-01-23T12:47:04.919Z,20.35
2019-01-23T12:49:30.789Z,21.30
2019-01-23T12:51:56.642Z,18.50
2019-01-23T12:54:22.454Z,21.23
2019-01-23T12:56:48.285Z,19.20
2019-01-23T12:59:14.392Z,23.47
2019-01-23T13:01:42.117Z,23.02
2019-01-23T13:04:08.210Z,22.25
2019-01-23T13:06:34.053Z,21.37
2019-01-23T13:09:00.196Z,22.67
2019-01-23T13:11:26.336Z,22.93
2019-01-23T13:13:52.142Z,23.18
2019-01-23T13:16:17.983Z,22.97
2019-01-23T13:18:44.109Z,23.43
2019-01-23T13:21:09.949Z,23.40
2019-01-23T13:23:35.775Z,22.33
2019-01-23T13:26:02.182Z,21.40
2019-01-23T13:28:29.138Z,22.17
2019-01-23T13:30:55.273Z,24.43
2019-01-23T13:33:21.399Z,22.27
2019-01-23T13:35:47.541Z,22.40
2019-01-23T13:38:13.350Z,21.20
2019-01-23T13:40:39.307Z,22.63
2019-01-23T13:43:05.833Z,24.33
2019-01-23T13:45:31.760Z,22.55
2019-01-23T13:47:58.013Z,36.80
2019-01-23T13:50:23.866Z,40.75
2019-01-23T13:52:51.558Z,22.13
2019-01-23T13:55:19.969Z,23.20
2019-01-23T13:57:49.220Z,23.67
2019-01-23T14:00:27.081Z,23.15
2019-01-23T14:02:53.111Z,22.17
2019-01-23T14:05:19.153Z,22.95
2019-01-23T14:07:44.994Z,21.73
2019-01-23T14:10:15.301Z,24.47
2019-01-23T14:12:41.450Z,20.12
2019-01-23T14:15:14.133Z,21.57
2019-01-23T14:17:40.120Z,22.90
2019-01-23T14:20:09.563Z,23.92
2019-01-23T14:22:35.958Z,22.45
2019-01-23T14:25:01.899Z,20.23
2019-01-23T14:27:27.993Z,21.57
2019-01-23T14:29:54.145Z,22.73
2019-01-23T14:32:19.952Z,21.17
2019-01-23T14:34:46.035Z,21.40
2019-01-23T14:37:12.241Z,22.45
2019-01-23T14:39:38.116Z,20.65
2019-01-23T14:42:05.218Z,21.30
2019-01-23T14:44:31.265Z,25.02
2019-01-23T14:46:57.404Z,20.82
2019-01-23T14:49:23.746Z,19.52
2019-01-23T14:51:49.882Z,21.05
2019-01-23T14:54:16.010Z,20.10
2019-01-23T14:56:42.139Z,20.77
2019-01-23T14:59:08.234Z,19.30
2019-01-23T15:01:34.076Z,21.12
2019-01-23T15:04:00.164Z,21.27
2019-01-23T15:06:26.004Z,20.15
2019-01-23T15:08:52.132Z,19.00
2019-01-23T15:11:17.977Z,22.30
2019-01-23T15:13:43.802Z,23.03
2019-01-23T15:16:12.397Z,18.50
2019-01-23T15:18:38.245Z,19.65
2019-01-23T15:21:07.082Z,21.93
2019-01-23T15:23:32.906Z,21.10
2019-01-23T15:26:01.755Z,21.27
2019-01-23T15:28:27.915Z,21.42
2019-01-23T15:30:53.765Z,22.62
2019-01-23T15:33:19.848Z,20.73
2019-01-23T15:35:45.985Z,21.27
2019-01-23T15:38:14.631Z,22.75
2019-01-23T15:40:40.681Z,22.25
2019-01-23T15:43:09.601Z,20.70
2019-01-23T15:45:35.835Z,19.87
2019-01-23T15:48:03.365Z,22.45
2019-01-23T15:50:29.198Z,24.80
2019-01-23T15:52:56.982Z,23.03
2019-01-23T15:55:23.924Z,20.60
2019-01-23T15:57:52.916Z,19.92
2019-01-23T16:00:27.851Z,21.62
2019-01-23T16:02:53.766Z,20.30
2019-01-23T16:05:19.711Z,20.23
2019-01-23T16:07:45.538Z,21.00
2019-01-23T16:10:14.737Z,21.30
2019-01-23T16:12:40.534Z,18.27
2019-01-23T16:15:09.768Z,22.67
2019-01-23T16:17:35.931Z,23.22
2019-01-23T16:20:04.151Z,21.20
2019-01-23T16:22:31.173Z,21.87
2019-01-23T16:24:57.158Z,19.77
2019-01-23T16:27:23.249Z,19.70
2019-01-23T16:29:49.094Z,22.73
2019-01-23T16:32:15.167Z,20.90
2019-01-23T16:34:41.287Z,21.48
2019-01-23T16:37:07.138Z,21.87
2019-01-23T16:39:32.937Z,21.17
2019-01-23T16:41:58.780Z,21.90
2019-01-23T16:44:24.882Z,21.00
2019-01-23T16:46:50.748Z,20.40
2019-01-23T16:49:16.591Z,23.60
2019-01-23T16:51:43.945Z,21.43
2019-01-23T16:54:10.159Z,22.13
2019-01-23T16:56:39.010Z,21.65
2019-01-23T16:59:04.952Z,21.57
2019-01-23T17:01:34.308Z,21.07
2019-01-23T17:04:00.549Z,23.02
2019-01-23T17:06:29.195Z,20.15
2019-01-23T17:08:55.052Z,20.90
2019-01-23T17:11:22.273Z,21.37
2019-01-23T17:13:48.397Z,23.83
2019-01-23T17:16:19.556Z,22.30
2019-01-23T17:18:45.406Z,21.80
2019-01-23T17:21:11.264Z,23.10
2019-01-23T17:23:37.101Z,22.70
2019-01-23T17:26:03.562Z,22.60
2019-01-23T17:28:29.426Z,22.52
2019-01-23T17:30:55.284Z,23.50
2019-01-23T17:33:24.172Z,24.17
2019-01-23T17:35:50.020Z,21.02
2019-01-23T17:38:18.855Z,22.60
2019-01-23T17:40:44.661Z,22.02
2019-01-23T17:43:14.084Z,22.20
2019-01-23T17:45:40.320Z,41.88
2019-01-23T17:48:09.947Z,35.98
2019-01-23T17:50:35.999Z,31.68
2019-01-23T17:53:03.286Z,22.13
2019-01-23T17:55:32.001Z,22.87
2019-01-23T17:57:58.274Z,21.95
2019-01-23T18:00:28.027Z,24.55
2019-01-23T18:02:53.831Z,24.70
2019-01-23T18:05:20.026Z,24.90
2019-01-23T18:07:45.958Z,24.87
2019-01-23T18:10:13.399Z,22.77
2019-01-23T18:12:39.516Z,24.27
2019-01-23T18:15:18.126Z,24.63
2019-01-23T18:17:44.096Z,25.68
2019-01-23T18:20:18.166Z,25.05
2019-01-23T18:22:44.139Z,25.77
2019-01-23T18:25:11.524Z,26.15
2019-01-23T18:27:37.462Z,25.05
2019-01-23T18:30:15.498Z,25.70
2019-01-23T18:32:41.337Z,24.23
2019-01-23T18:35:16.841Z,23.30
2019-01-23T18:37:55.564Z,25.35
2019-01-23T18:40:40.621Z,24.80
2019-01-23T18:43:28.286Z,27.45
2019-01-23T18:46:03.778Z,25.68
2019-01-23T18:48:42.152Z,27.70
2019-01-23T18:51:12.154Z,24.92
2019-01-23T18:53:37.962Z,24.52
2019-01-23T18:56:04.013Z,25.40
2019-01-23T18:58:30.129Z,25.10
2019-01-23T19:00:55.969Z,23.57
2019-01-23T19:03:21.918Z,25.87
2019-01-23T19:05:48.028Z,25.17
2019-01-23T19:08:14.131Z,27.85
2019-01-23T19:10:40.175Z,25.77
2019-01-23T19:13:06.100Z,24.15
2019-01-23T19:15:32.229Z,24.30
2019-01-23T19:17:58.036Z,26.55
2019-01-23T19:20:24.138Z,26.10
2019-01-23T19:22:50.056Z,41.48
2019-01-23T19:25:16.284Z,35.83
2019-01-23T19:27:42.303Z,26.33
2019-01-23T19:30:14.423Z,24.23
2019-01-23T19:32:40.499Z,25.80
2019-01-23T19:35:06.603Z,24.57
2019-01-23T19:37:32.435Z,25.92
2019-01-23T19:39:58.239Z,23.10
2019-01-23T19:42:24.172Z,21.77
2019-01-23T19:44:49.977Z,26.40
2019-01-23T19:47:15.820Z,22.93
2019-01-23T19:49:41.739Z,23.63
2019-01-23T19:52:07.693Z,23.57
2019-01-23T19:54:33.542Z,25.20
2019-01-23T19:56:59.349Z,25.60
2019-01-23T19:59:25.184Z,24.20
2019-01-23T20:01:51.000Z,25.37
2019-01-23T20:04:16.840Z,24.20
2019-01-23T20:06:42.910Z,22.43
2019-01-23T20:09:08.851Z,23.30
2019-01-23T20:11:34.667Z,22.60
2019-01-23T20:14:00.528Z,21.03
2019-01-23T20:16:26.365Z,23.67
2019-01-23T20:18:52.482Z,24.27
2019-01-23T20:21:18.592Z,24.20
2019-01-23T20:23:44.735Z,22.98
2019-01-23T20:26:10.554Z,25.77
2019-01-23T20:28:36.393Z,22.87
2019-01-23T20:31:05.377Z,23.47
2019-01-23T20:33:31.224Z,25.00
2019-01-23T20:36:00.110Z,25.43
2019-01-23T20:38:25.978Z,23.22
2019-01-23T20:40:52.174Z,26.17
2019-01-23T20:43:17.987Z,26.95
2019-01-23T20:45:44.092Z,27.90
2019-01-23T20:48:10.322Z,27.13
2019-01-23T20:50:36.253Z,25.27
2019-01-23T20:53:05.027Z,26.10
2019-01-23T20:55:30.938Z,26.40
2019-01-23T20:58:00.301Z,26.43
2019-01-23T21:00:28.510Z,21.75
2019-01-23T21:02:54.619Z,26.02
2019-01-23T21:05:20.640Z,27.13
2019-01-23T21:07:51.249Z,26.20
2019-01-23T21:10:19.736Z,29.70
2019-01-23T21:12:45.888Z,27.27
2019-01-23T21:15:13.610Z,25.55
2019-01-23T21:17:39.434Z,27.48
2019-01-23T21:20:07.586Z,29.00
2019-01-23T21:22:34.170Z,28.38
2019-01-23T21:25:00.022Z,26.40
2019-01-23T21:27:25.905Z,28.37
2019-01-23T21:29:51.776Z,25.10
2019-01-23T21:32:17.598Z,28.67
2019-01-23T21:34:46.501Z,27.40
2019-01-23T21:37:12.339Z,65.03
2019-01-23T21:39:41.166Z,28.17
2019-01-23T21:42:07.269Z,24.55
2019-01-23T21:44:36.389Z,24.87
2019-01-23T21:47:02.207Z,25.65
2019-01-23T21:49:29.254Z,24.40
2019-01-23T21:51:55.118Z,27.07
2019-01-23T21:54:20.927Z,24.83
2019-01-23T21:56:46.765Z,22.30
2019-01-23T21:59:12.591Z,25.23
2019-01-23T22:01:43.475Z,25.70
2019-01-23T22:04:09.594Z,25.90
2019-01-23T22:06:35.528Z,26.17
2019-01-23T22:09:01.674Z,27.23
2019-01-23T22:11:30.275Z,24.72
2019-01-23T22:13:56.077Z,23.87
2019-01-23T22:16:24.962Z,25.43
2019-01-23T22:18:50.809Z,26.73
2019-01-23T22:21:19.493Z,24.40
2019-01-23T22:23:45.631Z,23.85
2019-01-23T22:26:14.912Z,24.57
2019-01-23T22:28:40.757Z,25.15
2019-01-23T22:31:06.855Z,27.57
2019-01-23T22:33:32.695Z,24.60
2019-01-23T22:35:58.798Z,27.33
2019-01-23T22:38:27.857Z,26.10
2019-01-23T22:40:53.703Z,27.40
2019-01-23T22:43:22.409Z,25.30
2019-01-23T22:45:48.244Z,25.52
2019-01-23T22:48:17.129Z,26.80
2019-01-23T22:50:43.001Z,25.00
2019-01-23T22:53:10.874Z,25.70
2019-01-23T22:55:36.710Z,27.07
2019-01-23T22:58:07.475Z,24.70
2019-01-23T23:00:53.127Z,25.88
2019-01-23T23:03:19.318Z,24.47
2019-01-23T23:05:45.348Z,25.88
2019-01-23T23:08:11.577Z,24.27
2019-01-23T23:10:37.384Z,25.70
2019-01-23T23:13:03.432Z,25.10
2019-01-23T23:15:29.332Z,24.00
2019-01-23T23:17:55.161Z,26.80
2019-01-23T23:20:21.014Z,28.00
2019-01-23T23:22:47.106Z,25.77
2019-01-23T23:27:39.454Z,24.15
2019-01-23T23:30:10.278Z,24.95
2019-01-23T23:32:36.104Z,26.40
2019-01-23T23:35:03.937Z,24.73
2019-01-23T23:37:29.743Z,24.37
2019-01-23T23:39:55.591Z,23.50
2019-01-23T23:42:21.725Z,25.83
2019-01-23T23:44:47.545Z,25.35
2019-01-23T23:47:13.657Z,23.90
2019-01-23T23:49:39.470Z,27.60
2019-01-23T23:52:05.731Z,23.93
2019-01-23T23:54:31.897Z,25.27
2019-01-23T23:56:57.982Z,24.80
2019-01-23T23:59:24.119Z,23.95
